Create Custom Reports and Graphics: Custom Report

Belmont 8000'

Squaw Valley

10/19/21 1:30 AM (-07:00)
Updated Every 15 Minutes
Temp 28.0 °F   6.7
RH 98 %   0
Dew Pt 27.4 °F   6.7
Wet Bulb 27.7 °F   6.6
Wind Dir SSE | 164 °
Wind Spd 1.1 mph   7.4
Wind Gust 3.7 mph   15.7
WindChill 27.8 °F   15.4
Daily Min Temp 27.2 °F   5.9
Daily Max Temp 28.8 °F   6.8
Latest Rain 0.00 In
Daily Rain 0.01 In
New Snow 0.0 in
SnowDepth 4.3 in

Last 24 Hours

OV-Belmont 8000'

Hourly Data | America/Los_Angeles
as of 10/19/21 1:50 AM PDT
Date & Time Temp (°F) RH (%) Dew Pt (°F) Wet Bulb (°F) Wind Dir (°) Wind Spd (mph) Wind Gust (mph) WindChill (°F) Latest Rain (In) New Snow (in) SnowDepth (in) Daily Min Temp (°F) Daily Max Temp (°F) Daily Rain (In)
10/19/21 - 0100 28.7 96 27.7 28.3 S | 180 1.7 3.7 27.7 0.01 0.0 4.3 27.2 28.8 0.01
10/19/21 - 0000 27.4 100 27.4 27.4 SSE | 164 1.7 5.0 26.2 0.00 0.0 4.3 19.8 31.3 0.47
10/18/21 - 2300 26.9 100 26.9 26.9 SE | 140 2.1 6.6 25.9 0.00 0.0 4.3 19.8 31.3 0.47
10/18/21 - 2200 26.7 100 26.7 26.7 E | 97 2.4 7.1 25.4 0.00 0.0 4.3 19.8 31.3 0.47
10/18/21 - 2100 26.8 99 26.6 26.7 NE | 40 3.3 6.8 23.4 0.00 0.0 4.4 19.8 31.3 0.47
10/18/21 - 2000 25.9 99 25.7 25.8 NE | 44 3.8 9.3 22.5 0.00 0.0 4.4 19.8 31.3 0.47
10/18/21 - 1900 26.1 99 25.8 26.0 NE | 36 3.8 10.5 23.0 0.01 0.0 4.4 19.8 31.3 0.47
10/18/21 - 1800 26.9 98 26.5 26.7 NE | 38 4.4 9.9 23.2 0.01 0.0 4.5 19.8 31.3 0.46
10/18/21 - 1700 27.6 97 26.9 27.3 NNW | 339 5.8 10.8 22.6 0.01 0.0 4.5 19.8 31.3 0.45
10/18/21 - 1600 28.5 97 27.7 28.2 NW | 320 5.4 10.5 24.8 0.01 0.0 4.6 19.8 31.3 0.44
10/18/21 - 1500 31.1 94 29.6 30.4 WSW | 238 6.0 12.8 22.9 0.03 0.0 75.6 19.8 31.3 0.43
10/18/21 - 1400 28.4 94 27.0 27.8 SW | 224 6.4 12.4 23.2 0.04 0.0 76.0 19.8 31.1 0.40
10/18/21 - 1300 29.8 95 28.5 29.3 SW | 226 4.5 10.1 24.2 0.06 0.0 76.3 19.8 29.9 0.36
10/18/21 - 1200 26.6 96 25.6 26.2 SW | 220 6.3 11.9 20.9 0.04 0.0 76.4 19.8 28.2 0.30
10/18/21 - 1100 25.4 97 24.6 25.1 SSW | 212 7.7 15.9 17.8 0.04 5.7 76.6 19.8 26.7 0.26
10/18/21 - 1000 24.9 98 24.4 24.7 SSW | 194 10.1 21.5 13.7 0.03 5.9 76.7 19.8 24.9 0.22
10/18/21 - 0900 22.9 98 22.4 22.7 SSW | 202 7.5 15.0 13.9 0.03 6.0 76.8 19.8 23.2 0.19
10/18/21 - 0800 21.8 98 21.4 21.7 S | 173 11.3 18.7 9.8 0.01 6.1 77.0 19.8 22.0 0.16
10/18/21 - 0700 20.8 98 20.3 20.6 S | 175 11.2 17.6 9.0 0.02 6.1 77.0 19.8 22.0 0.15
10/18/21 - 0600 20.5 98 20.0 20.3 S | 176 13.5 23.8 8.1 0.02 6.2 77.1 19.8 22.0 0.13
10/18/21 - 0500 21.0 98 20.5 20.8 S | 184 13.9 31.0 8.4 0.01 6.2 77.2 19.8 22.0 0.11
10/18/21 - 0400 21.0 98 20.5 20.9 S | 174 12.5 34.0 9.0 0.02 6.2 77.1 19.8 22.0 0.10
10/18/21 - 0300 20.8 98 20.3 20.6 S | 182 7.9 21.9 11.6 0.03 5.8 76.6 19.8 22.0 0.08
10/18/21 - 0200 20.1 97 19.5 19.9 SSE | 147 8.5 19.8 12.0 0.03 6.0 76.7 19.8 22.0 0.05
10/18/21 - 0100 21.9 98 21.4 21.8 SE | 137 9.4 24.4 11.9 0.02 5.7 76.2 21.5 22.0 0.02
Max 31.1 100 29.6 30.4 - 13.9 34.0 27.7 0.06 6.2 77.2 27.2 31.3 0.47
Avg 25.2 98 24.6 24.9 - 6.8 14.8 18.5 0.02 2.6 47.7 - - -
Min 20.1 94 19.5 19.9 - 1.7 3.7 8.1 0.00 0.0 4.3 19.8 22.0 0.01
Total - - - - - - - - 0.48 - - - - -

Last 30 Days

OV-Belmont 8000'

Daily Data | America/Los_Angeles
as of 10/19/21 1:50 AM PDT
Date Daily Max Temp (°F) Time of Max Temp Daily Min Temp (°F) Time of Min Temp Daily Rain (In) Seasonal Rainfall (In) New Snow (in) SnowDepth (in) Wind Spd (mph) Daily Max Wind (mph) Time of Max Wind Max Wind Dir (°) Max RH (%) Min RH (%) Wet Bulb (°F) WetB Hrs <28F (hrs) Bat Volt Min Day (V)
10/18/21 31.3 1458 19.8 0149 0.47 129.70 0.0 4.3 7.1 34.0 0354 SSW | 205 100 92 24.8 20.6 13.0
10/17/21 46.6 1246 21.8 2359 0.13 129.20 5.5 75.9 10.8 38.9 1304 SSE | 150 100 24 30.8 1.8 12.9
10/16/21 65.0 1334 42.5 0709 0.00 129.10 - - 4.8 20.3 2310 S | 188 49 17 36.1 0.0 13.1
10/15/21 62.9 1620 37.1 0030 0.00 129.10 - - 1.4 9.3 1303 ENE | 77 44 13 34.9 1.7 13.1
10/14/21 49.1 1427 26.5 0613 0.00 129.10 - - 2.1 11.3 1346 SE | 128 84 34 30.7 8.7 13.1
10/13/21 45.5 1427 29.0 0001 0.00 129.10 - - 5.1 19.3 0807 WNW | 303 66 21 28.1 11.5 13.1
10/12/21 35.1 1559 14.7 0646 0.00 129.10 - - 7.5 34.2 0312 NNE | 19 97 30 19.7 24.0 13.2
10/11/21 35.8 0004 18.7 2358 0.08 129.10 - - 13.0 34.6 2224 N | 0 99 65 22.5 19.1 13.2
10/10/21 58.5 1334 35.3 0729 0.00 129.00 - - 5.0 28.7 2339 SW | 219 74 21 34.0 0.0 13.1
10/9/21 46.2 1441 26.1 0456 0.04 129.00 - - 3.7 16.0 0003 ENE | 73 79 36 29.1 9.5 13.1
10/8/21 37.3 0009 26.0 2211 0.78 128.90 - - 10.3 30.1 1805 SW | 223 100 57 30.8 5.7 12.2
10/7/21 47.2 1354 37.1 2350 0.02 128.20 - - 7.8 27.3 1431 ESE | 116 96 69 37.9 0.0 12.2
10/6/21 49.1 1221 40.0 2054 0.00 128.10 - - 8.4 30.9 1322 SSE | 163 86 45 38.2 0.0 13.1
10/5/21 58.6 1440 43.7 2356 0.00 128.10 - - 8.5 31.0 2230 SE | 140 66 30 39.2 0.0 13.0
10/4/21 62.4 1425 50.7 0012 0.00 128.10 - - 7.6 23.3 1100 WSW | 242 33 15 38.9 0.0 13.1
10/3/21 69.7 1256 49.2 0611 0.00 128.10 - - 3.2 14.3 1558 WNW | 303 34 14 39.1 0.0 13.1
10/2/21 69.2 1612 46.4 0247 0.00 128.10 - - 2.0 13.1 1819 S | 175 41 15 39.3 0.0 13.1
10/1/21 67.2 1226 42.6 0037 0.00 128.10 - - 2.4 14.4 1628 S | 187 40 16 37.9 0.0 13.1
9/30/21 61.9 1617 38.0 0336 0.00 128.10 - - 3.0 13.9 1139 ESE | 104 49 11 35.2 0.0 13.2
9/29/21 - 0001 - 0001 0.23 128.10 - - 3.0 37.6 0203 NNE | 15 42 14 - 0.0 13.3
9/27/21 - 0001 - 0001 0.06 127.90 - - 12.0 36.7 1718 WSW | 254 14 14 - 0.0 12.7
9/26/21 - 0001 - 0001 0.00 127.80 - - 12.3 30.8 1109 WSW | 253 14 14 - 0.0 13.1
9/25/21 - 0001 - 0001 0.00 127.80 - - 8.7 22.8 2336 SW | 221 14 14 - 0.0 13.1
9/24/21 - 0001 - 0001 0.00 127.80 - - 4.8 17.3 1827 WSW | 257 14 14 - 0.0 13.1
9/23/21 - 0001 - 0001 0.00 127.80 - - 3.3 13.5 1857 E | 100 14 14 - 0.0 13.1
9/22/21 - 0001 - 0001 0.00 127.80 - - 8.2 30.8 1149 S | 180 14 14 - 0.0 13.1
9/21/21 - 0001 - 0001 0.00 127.80 - - 5.4 22.5 1219 WSW | 250 14 14 - 0.0 13.1
9/20/21 - 0001 - 0001 0.00 127.80 - - 4.6 16.5 0958 ESE | 102 14 14 - 0.0 13.2
9/19/21 - 0001 - 0001 0.28 127.80 - - 12.3 52.0 0541 E | 89 14 14 - 0.0 13.3
Max 69.7 - 50.7 - 0.78 - 5.5 75.9 13.0 52.0 - - 100 92 39.3 24.0 13.3
Avg - - - - - - 2.8 40.1 6.5 - - - - - 33.0 - -
Min 31.3 - 14.7 - 0.00 - 0.0 4.3 1.4 9.3 - - 14 11 19.7 0.0 12.2
Calm: 0.0%
Calm: 0.0%